sensor_id;sensor_type;location;lat;lon;timestamp;P1;durP1;ratioP1;P2;durP2;ratioP2
56537;SDS011;42435;53.292;6.000;2023-02-03T00:00:26;13.30;;;3.85;;
56537;SDS011;42435;53.292;6.000;2023-02-03T00:02:53;11.98;;;2.72;;
56537;SDS011;42435;53.292;6.000;2023-02-03T00:05:19;10.45;;;2.35;;
56537;SDS011;42435;53.292;6.000;2023-02-03T00:07:45;12.00;;;2.92;;
56537;SDS011;42435;53.292;6.000;2023-02-03T00:10:11;10.40;;;2.83;;
56537;SDS011;42435;53.292;6.000;2023-02-03T00:12:37;9.15;;;3.22;;
56537;SDS011;42435;53.292;6.000;2023-02-03T00:15:02;9.82;;;3.00;;
56537;SDS011;42435;53.292;6.000;2023-02-03T00:17:28;13.27;;;2.53;;
56537;SDS011;42435;53.292;6.000;2023-02-03T00:19:54;11.00;;;2.90;;
56537;SDS011;42435;53.292;6.000;2023-02-03T00:22:19;10.38;;;2.53;;
56537;SDS011;42435;53.292;6.000;2023-02-03T00:24:45;12.27;;;2.45;;
56537;SDS011;42435;53.292;6.000;2023-02-03T00:27:10;10.90;;;2.63;;
56537;SDS011;42435;53.292;6.000;2023-02-03T00:29:36;11.50;;;2.83;;
56537;SDS011;42435;53.292;6.000;2023-02-03T00:32:01;12.30;;;3.08;;
56537;SDS011;42435;53.292;6.000;2023-02-03T00:34:30;8.93;;;1.95;;
56537;SDS011;42435;53.292;6.000;2023-02-03T00:36:56;8.88;;;2.20;;
56537;SDS011;42435;53.292;6.000;2023-02-03T00:39:22;12.02;;;3.10;;
56537;SDS011;42435;53.292;6.000;2023-02-03T00:41:47;11.05;;;2.17;;
56537;SDS011;42435;53.292;6.000;2023-02-03T00:44:13;12.35;;;2.17;;
56537;SDS011;42435;53.292;6.000;2023-02-03T00:46:39;14.70;;;2.97;;
56537;SDS011;42435;53.292;6.000;2023-02-03T00:49:06;10.10;;;2.65;;
56537;SDS011;42435;53.292;6.000;2023-02-03T00:51:35;11.88;;;2.28;;
56537;SDS011;42435;53.292;6.000;2023-02-03T00:54:00;12.13;;;2.80;;
56537;SDS011;42435;53.292;6.000;2023-02-03T00:56:26;11.70;;;2.35;;
56537;SDS011;42435;53.292;6.000;2023-02-03T00:58:51;9.25;;;2.08;;
56537;SDS011;42435;53.292;6.000;2023-02-03T01:01:17;7.88;;;2.63;;
56537;SDS011;42435;53.292;6.000;2023-02-03T01:03:42;12.15;;;2.70;;
56537;SDS011;42435;53.292;6.000;2023-02-03T01:06:16;5.65;;;2.03;;
56537;SDS011;42435;53.292;6.000;2023-02-03T01:08:43;14.85;;;2.92;;
56537;SDS011;42435;53.292;6.000;2023-02-03T01:11:10;9.27;;;2.40;;
56537;SDS011;42435;53.292;6.000;2023-02-03T01:13:38;9.10;;;1.92;;
56537;SDS011;42435;53.292;6.000;2023-02-03T01:16:11;7.53;;;1.92;;
56537;SDS011;42435;53.292;6.000;2023-02-03T01:18:41;8.50;;;2.15;;
56537;SDS011;42435;53.292;6.000;2023-02-03T01:21:08;5.18;;;2.13;;
56537;SDS011;42435;53.292;6.000;2023-02-03T01:23:44;8.80;;;2.33;;
56537;SDS011;42435;53.292;6.000;2023-02-03T01:26:11;9.75;;;2.13;;
56537;SDS011;42435;53.292;6.000;2023-02-03T01:28:39;7.68;;;1.60;;
56537;SDS011;42435;53.292;6.000;2023-02-03T01:31:13;12.45;;;2.33;;
56537;SDS011;42435;53.292;6.000;2023-02-03T01:33:41;16.83;;;3.20;;
56537;SDS011;42435;53.292;6.000;2023-02-03T01:36:10;8.02;;;2.10;;
56537;SDS011;42435;53.292;6.000;2023-02-03T01:38:37;11.60;;;2.03;;
56537;SDS011;42435;53.292;6.000;2023-02-03T01:41:03;6.47;;;2.20;;
56537;SDS011;42435;53.292;6.000;2023-02-03T01:43:31;11.40;;;3.75;;
56537;SDS011;42435;53.292;6.000;2023-02-03T01:45:59;9.27;;;2.05;;
56537;SDS011;42435;53.292;6.000;2023-02-03T01:48:30;10.50;;;2.22;;
56537;SDS011;42435;53.292;6.000;2023-02-03T01:50:59;11.45;;;2.95;;
56537;SDS011;42435;53.292;6.000;2023-02-03T01:53:27;8.07;;;2.45;;
56537;SDS011;42435;53.292;6.000;2023-02-03T01:55:53;11.27;;;2.33;;
56537;SDS011;42435;53.292;6.000;2023-02-03T01:58:21;8.45;;;3.25;;
56537;SDS011;42435;53.292;6.000;2023-02-03T02:00:51;9.32;;;2.20;;
56537;SDS011;42435;53.292;6.000;2023-02-03T02:03:19;10.10;;;3.15;;
56537;SDS011;42435;53.292;6.000;2023-02-03T02:05:48;10.45;;;2.42;;
56537;SDS011;42435;53.292;6.000;2023-02-03T02:08:17;14.48;;;2.83;;
56537;SDS011;42435;53.292;6.000;2023-02-03T02:10:46;10.32;;;2.20;;
56537;SDS011;42435;53.292;6.000;2023-02-03T02:13:12;11.05;;;3.22;;
56537;SDS011;42435;53.292;6.000;2023-02-03T02:15:49;13.55;;;2.88;;
56537;SDS011;42435;53.292;6.000;2023-02-03T02:18:56;11.98;;;2.72;;
56537;SDS011;42435;53.292;6.000;2023-02-03T02:24:27;7.40;;;1.90;;
56537;SDS011;42435;53.292;6.000;2023-02-03T02:33:07;14.88;;;2.30;;
56537;SDS011;42435;53.292;6.000;2023-02-03T02:41:05;12.38;;;2.42;;
56537;SDS011;42435;53.292;6.000;2023-02-03T02:43:46;15.75;;;2.80;;
56537;SDS011;42435;53.292;6.000;2023-02-03T02:46:38;14.20;;;2.65;;
56537;SDS011;42435;53.292;6.000;2023-02-03T02:49:19;14.93;;;2.40;;
56537;SDS011;42435;53.292;6.000;2023-02-03T02:51:59;9.40;;;2.83;;
56537;SDS011;42435;53.292;6.000;2023-02-03T02:54:28;10.65;;;2.35;;
56537;SDS011;42435;53.292;6.000;2023-02-03T02:56:56;14.38;;;3.38;;
56537;SDS011;42435;53.292;6.000;2023-02-03T02:59:25;9.70;;;2.13;;
56537;SDS011;42435;53.292;6.000;2023-02-03T03:01:50;10.32;;;2.58;;
56537;SDS011;42435;53.292;6.000;2023-02-03T03:04:17;12.82;;;3.35;;
56537;SDS011;42435;53.292;6.000;2023-02-03T03:11:49;14.18;;;2.88;;
56537;SDS011;42435;53.292;6.000;2023-02-03T03:14:18;13.32;;;2.45;;
56537;SDS011;42435;53.292;6.000;2023-02-03T03:16:49;11.85;;;2.58;;
56537;SDS011;42435;53.292;6.000;2023-02-03T03:19:38;6.65;;;2.03;;
56537;SDS011;42435;53.292;6.000;2023-02-03T03:22:12;12.95;;;2.63;;
56537;SDS011;42435;53.292;6.000;2023-02-03T03:24:51;17.48;;;3.25;;
56537;SDS011;42435;53.292;6.000;2023-02-03T03:27:25;13.88;;;2.63;;
56537;SDS011;42435;53.292;6.000;2023-02-03T03:32:38;10.50;;;2.50;;
56537;SDS011;42435;53.292;6.000;2023-02-03T03:35:04;7.45;;;2.25;;
56537;SDS011;42435;53.292;6.000;2023-02-03T03:37:35;13.90;;;2.47;;
56537;SDS011;42435;53.292;6.000;2023-02-03T03:40:11;10.15;;;2.30;;
56537;SDS011;42435;53.292;6.000;2023-02-03T03:42:59;13.32;;;2.55;;
56537;SDS011;42435;53.292;6.000;2023-02-03T03:45:30;8.15;;;2.15;;
56537;SDS011;42435;53.292;6.000;2023-02-03T03:48:08;11.55;;;2.83;;
56537;SDS011;42435;53.292;6.000;2023-02-03T03:50:49;9.48;;;3.17;;
56537;SDS011;42435;53.292;6.000;2023-02-03T03:53:20;9.32;;;2.53;;
56537;SDS011;42435;53.292;6.000;2023-02-03T03:55:48;10.35;;;2.17;;
56537;SDS011;42435;53.292;6.000;2023-02-03T03:58:29;13.55;;;2.90;;
56537;SDS011;42435;53.292;6.000;2023-02-03T04:01:01;9.00;;;2.35;;
56537;SDS011;42435;53.292;6.000;2023-02-03T04:03:49;8.40;;;2.40;;
56537;SDS011;42435;53.292;6.000;2023-02-03T04:06:20;10.23;;;3.38;;
56537;SDS011;42435;53.292;6.000;2023-02-03T04:08:48;10.90;;;2.47;;
56537;SDS011;42435;53.292;6.000;2023-02-03T04:11:14;13.20;;;3.20;;
56537;SDS011;42435;53.292;6.000;2023-02-03T04:13:59;16.63;;;3.05;;
56537;SDS011;42435;53.292;6.000;2023-02-03T04:16:25;16.48;;;3.80;;
56537;SDS011;42435;53.292;6.000;2023-02-03T04:18:51;14.52;;;2.78;;
56537;SDS011;42435;53.292;6.000;2023-02-03T04:21:16;14.68;;;2.45;;
56537;SDS011;42435;53.292;6.000;2023-02-03T04:23:42;11.00;;;3.20;;
56537;SDS011;42435;53.292;6.000;2023-02-03T04:26:07;11.32;;;3.80;;
56537;SDS011;42435;53.292;6.000;2023-02-03T04:28:33;13.05;;;3.00;;
56537;SDS011;42435;53.292;6.000;2023-02-03T04:31:01;9.43;;;2.90;;
56537;SDS011;42435;53.292;6.000;2023-02-03T04:33:27;11.82;;;2.70;;
56537;SDS011;42435;53.292;6.000;2023-02-03T04:35:52;10.00;;;2.50;;
56537;SDS011;42435;53.292;6.000;2023-02-03T04:38:18;8.27;;;2.45;;
56537;SDS011;42435;53.292;6.000;2023-02-03T04:40:43;9.88;;;2.20;;
56537;SDS011;42435;53.292;6.000;2023-02-03T04:43:12;11.88;;;3.15;;
56537;SDS011;42435;53.292;6.000;2023-02-03T04:45:39;9.15;;;2.30;;
56537;SDS011;42435;53.292;6.000;2023-02-03T04:48:04;9.98;;;2.75;;
56537;SDS011;42435;53.292;6.000;2023-02-03T04:50:30;12.07;;;2.72;;
56537;SDS011;42435;53.292;6.000;2023-02-03T04:52:56;12.05;;;3.25;;
56537;SDS011;42435;53.292;6.000;2023-02-03T04:55:26;10.30;;;3.25;;
56537;SDS011;42435;53.292;6.000;2023-02-03T04:57:55;11.82;;;2.55;;
56537;SDS011;42435;53.292;6.000;2023-02-03T05:00:21;16.23;;;3.03;;
56537;SDS011;42435;53.292;6.000;2023-02-03T05:02:47;11.77;;;3.00;;
56537;SDS011;42435;53.292;6.000;2023-02-03T05:05:13;11.82;;;2.85;;
56537;SDS011;42435;53.292;6.000;2023-02-03T05:07:38;11.07;;;2.67;;
56537;SDS011;42435;53.292;6.000;2023-02-03T05:10:04;11.68;;;3.15;;
56537;SDS011;42435;53.292;6.000;2023-02-03T05:12:30;18.40;;;2.90;;
56537;SDS011;42435;53.292;6.000;2023-02-03T05:14:56;11.80;;;3.33;;
56537;SDS011;42435;53.292;6.000;2023-02-03T05:17:21;12.15;;;3.00;;
56537;SDS011;42435;53.292;6.000;2023-02-03T05:19:47;14.73;;;2.90;;
56537;SDS011;42435;53.292;6.000;2023-02-03T05:22:12;11.18;;;3.17;;
56537;SDS011;42435;53.292;6.000;2023-02-03T05:24:38;14.98;;;3.00;;
56537;SDS011;42435;53.292;6.000;2023-02-03T05:27:03;13.90;;;3.17;;
56537;SDS011;42435;53.292;6.000;2023-02-03T05:29:29;15.18;;;4.13;;
56537;SDS011;42435;53.292;6.000;2023-02-03T05:31:54;13.82;;;3.33;;
56537;SDS011;42435;53.292;6.000;2023-02-03T05:34:20;14.57;;;3.42;;
56537;SDS011;42435;53.292;6.000;2023-02-03T05:36:45;9.77;;;3.58;;
56537;SDS011;42435;53.292;6.000;2023-02-03T05:39:11;13.95;;;3.30;;
56537;SDS011;42435;53.292;6.000;2023-02-03T05:41:37;16.58;;;3.83;;
56537;SDS011;42435;53.292;6.000;2023-02-03T05:44:26;16.10;;;3.17;;
56537;SDS011;42435;53.292;6.000;2023-02-03T05:46:53;18.42;;;3.63;;
56537;SDS011;42435;53.292;6.000;2023-02-03T05:49:20;15.73;;;4.65;;
56537;SDS011;42435;53.292;6.000;2023-02-03T05:51:47;11.68;;;3.38;;
56537;SDS011;42435;53.292;6.000;2023-02-03T05:54:13;19.02;;;3.58;;
56537;SDS011;42435;53.292;6.000;2023-02-03T05:56:39;22.48;;;4.07;;
56537;SDS011;42435;53.292;6.000;2023-02-03T05:59:06;18.00;;;4.18;;
56537;SDS011;42435;53.292;6.000;2023-02-03T06:01:32;18.50;;;3.90;;
56537;SDS011;42435;53.292;6.000;2023-02-03T06:03:59;21.38;;;4.35;;
56537;SDS011;42435;53.292;6.000;2023-02-03T06:06:26;16.45;;;4.22;;
56537;SDS011;42435;53.292;6.000;2023-02-03T06:08:57;18.52;;;5.80;;
56537;SDS011;42435;53.292;6.000;2023-02-03T06:11:23;19.30;;;5.13;;
56537;SDS011;42435;53.292;6.000;2023-02-03T06:13:49;19.52;;;4.50;;
56537;SDS011;42435;53.292;6.000;2023-02-03T06:16:15;19.02;;;4.40;;
56537;SDS011;42435;53.292;6.000;2023-02-03T06:18:41;21.20;;;4.38;;
56537;SDS011;42435;53.292;6.000;2023-02-03T06:21:06;18.73;;;4.78;;
56537;SDS011;42435;53.292;6.000;2023-02-03T06:23:32;19.77;;;4.25;;
56537;SDS011;42435;53.292;6.000;2023-02-03T06:25:58;22.13;;;5.47;;
56537;SDS011;42435;53.292;6.000;2023-02-03T06:28:24;15.25;;;5.00;;
56537;SDS011;42435;53.292;6.000;2023-02-03T06:30:52;27.42;;;5.68;;
56537;SDS011;42435;53.292;6.000;2023-02-03T06:33:18;22.90;;;4.63;;
56537;SDS011;42435;53.292;6.000;2023-02-03T06:35:49;22.48;;;5.03;;
56537;SDS011;42435;53.292;6.000;2023-02-03T06:38:15;23.23;;;5.78;;
56537;SDS011;42435;53.292;6.000;2023-02-03T06:40:41;19.48;;;5.85;;
56537;SDS011;42435;53.292;6.000;2023-02-03T06:43:06;20.88;;;4.85;;
56537;SDS011;42435;53.292;6.000;2023-02-03T06:45:32;19.98;;;4.68;;
56537;SDS011;42435;53.292;6.000;2023-02-03T06:47:58;24.38;;;4.70;;
56537;SDS011;42435;53.292;6.000;2023-02-03T06:50:24;23.48;;;5.68;;
56537;SDS011;42435;53.292;6.000;2023-02-03T06:52:49;25.38;;;5.13;;
56537;SDS011;42435;53.292;6.000;2023-02-03T06:55:15;22.27;;;5.95;;
56537;SDS011;42435;53.292;6.000;2023-02-03T06:57:44;23.60;;;5.38;;
56537;SDS011;42435;53.292;6.000;2023-02-03T07:00:11;20.15;;;5.13;;
56537;SDS011;42435;53.292;6.000;2023-02-03T07:02:37;25.40;;;5.10;;
56537;SDS011;42435;53.292;6.000;2023-02-03T07:05:04;25.17;;;5.43;;
56537;SDS011;42435;53.292;6.000;2023-02-03T07:07:29;23.90;;;5.30;;
56537;SDS011;42435;53.292;6.000;2023-02-03T07:09:57;25.20;;;6.30;;
56537;SDS011;42435;53.292;6.000;2023-02-03T07:12:22;24.20;;;5.80;;
56537;SDS011;42435;53.292;6.000;2023-02-03T07:14:48;23.48;;;5.10;;
56537;SDS011;42435;53.292;6.000;2023-02-03T07:17:13;27.80;;;6.38;;
56537;SDS011;42435;53.292;6.000;2023-02-03T07:19:39;27.65;;;6.68;;
56537;SDS011;42435;53.292;6.000;2023-02-03T07:22:04;19.13;;;5.32;;
56537;SDS011;42435;53.292;6.000;2023-02-03T07:24:30;25.40;;;6.22;;
56537;SDS011;42435;53.292;6.000;2023-02-03T07:26:56;23.02;;;5.45;;
56537;SDS011;42435;53.292;6.000;2023-02-03T07:29:21;27.05;;;5.85;;
56537;SDS011;42435;53.292;6.000;2023-02-03T07:31:47;20.70;;;5.53;;
56537;SDS011;42435;53.292;6.000;2023-02-03T07:34:12;23.92;;;5.55;;
56537;SDS011;42435;53.292;6.000;2023-02-03T07:36:38;23.23;;;7.22;;
56537;SDS011;42435;53.292;6.000;2023-02-03T07:39:03;27.35;;;5.80;;
56537;SDS011;42435;53.292;6.000;2023-02-03T07:41:29;28.08;;;7.05;;
56537;SDS011;42435;53.292;6.000;2023-02-03T07:43:55;28.35;;;5.75;;
56537;SDS011;42435;53.292;6.000;2023-02-03T07:46:20;32.75;;;6.55;;
56537;SDS011;42435;53.292;6.000;2023-02-03T07:48:46;21.13;;;6.10;;
56537;SDS011;42435;53.292;6.000;2023-02-03T07:51:11;26.85;;;5.95;;
56537;SDS011;42435;53.292;6.000;2023-02-03T07:53:37;31.30;;;7.57;;
56537;SDS011;42435;53.292;6.000;2023-02-03T07:56:03;33.90;;;7.53;;
56537;SDS011;42435;53.292;6.000;2023-02-03T07:58:29;33.42;;;7.43;;
56537;SDS011;42435;53.292;6.000;2023-02-03T08:00:58;38.60;;;9.40;;
56537;SDS011;42435;53.292;6.000;2023-02-03T08:03:24;33.83;;;8.90;;
56537;SDS011;42435;53.292;6.000;2023-02-03T08:05:50;35.67;;;7.75;;
56537;SDS011;42435;53.292;6.000;2023-02-03T08:08:17;34.80;;;8.80;;
56537;SDS011;42435;53.292;6.000;2023-02-03T08:10:42;36.85;;;8.05;;
56537;SDS011;42435;53.292;6.000;2023-02-03T08:13:08;32.58;;;8.18;;
56537;SDS011;42435;53.292;6.000;2023-02-03T08:15:34;23.30;;;6.82;;
56537;SDS011;42435;53.292;6.000;2023-02-03T08:17:59;35.05;;;9.50;;
56537;SDS011;42435;53.292;6.000;2023-02-03T08:20:25;40.17;;;10.32;;
56537;SDS011;42435;53.292;6.000;2023-02-03T08:22:53;34.88;;;7.18;;
56537;SDS011;42435;53.292;6.000;2023-02-03T08:25:19;34.80;;;8.55;;
56537;SDS011;42435;53.292;6.000;2023-02-03T08:27:44;30.83;;;8.75;;
56537;SDS011;42435;53.292;6.000;2023-02-03T08:30:11;33.70;;;7.53;;
56537;SDS011;42435;53.292;6.000;2023-02-03T08:32:37;25.15;;;7.13;;
56537;SDS011;42435;53.292;6.000;2023-02-03T08:35:03;29.00;;;7.25;;
56537;SDS011;42435;53.292;6.000;2023-02-03T08:37:30;25.52;;;6.63;;
56537;SDS011;42435;53.292;6.000;2023-02-03T08:39:56;35.60;;;8.30;;
56537;SDS011;42435;53.292;6.000;2023-02-03T08:42:23;24.45;;;7.15;;
56537;SDS011;42435;53.292;6.000;2023-02-03T08:44:48;30.50;;;7.63;;
56537;SDS011;42435;53.292;6.000;2023-02-03T08:47:14;26.52;;;7.65;;
56537;SDS011;42435;53.292;6.000;2023-02-03T08:49:39;28.23;;;7.90;;
56537;SDS011;42435;53.292;6.000;2023-02-03T08:52:07;27.48;;;7.70;;
56537;SDS011;42435;53.292;6.000;2023-02-03T08:54:35;35.85;;;6.57;;
56537;SDS011;42435;53.292;6.000;2023-02-03T08:57:04;26.65;;;5.93;;
56537;SDS011;42435;53.292;6.000;2023-02-03T08:59:30;25.50;;;6.65;;
56537;SDS011;42435;53.292;6.000;2023-02-03T09:02:00;28.48;;;5.97;;
56537;SDS011;42435;53.292;6.000;2023-02-03T09:04:29;24.00;;;6.18;;
56537;SDS011;42435;53.292;6.000;2023-02-03T09:06:57;25.23;;;6.00;;
56537;SDS011;42435;53.292;6.000;2023-02-03T09:09:23;26.17;;;6.38;;
56537;SDS011;42435;53.292;6.000;2023-02-03T09:11:50;21.48;;;6.75;;
56537;SDS011;42435;53.292;6.000;2023-02-03T09:14:16;31.52;;;6.63;;
56537;SDS011;42435;53.292;6.000;2023-02-03T09:16:42;27.20;;;7.03;;
56537;SDS011;42435;53.292;6.000;2023-02-03T09:19:07;33.53;;;7.13;;
56537;SDS011;42435;53.292;6.000;2023-02-03T09:21:33;25.02;;;6.72;;
56537;SDS011;42435;53.292;6.000;2023-02-03T09:23:59;30.95;;;6.80;;
56537;SDS011;42435;53.292;6.000;2023-02-03T09:26:26;33.03;;;6.93;;
56537;SDS011;42435;53.292;6.000;2023-02-03T09:28:52;24.10;;;7.28;;
56537;SDS011;42435;53.292;6.000;2023-02-03T09:31:17;31.05;;;6.32;;
56537;SDS011;42435;53.292;6.000;2023-02-03T09:33:43;28.83;;;8.23;;
56537;SDS011;42435;53.292;6.000;2023-02-03T09:36:09;24.25;;;6.93;;
56537;SDS011;42435;53.292;6.000;2023-02-03T09:38:35;27.88;;;6.97;;
56537;SDS011;42435;53.292;6.000;2023-02-03T09:41:02;31.45;;;7.43;;
56537;SDS011;42435;53.292;6.000;2023-02-03T09:46:21;36.95;;;7.35;;
56537;SDS011;42435;53.292;6.000;2023-02-03T09:48:56;33.58;;;7.00;;
56537;SDS011;42435;53.292;6.000;2023-02-03T09:51:28;27.27;;;6.32;;
56537;SDS011;42435;53.292;6.000;2023-02-03T09:56:47;30.92;;;7.70;;
56537;SDS011;42435;53.292;6.000;2023-02-03T09:59:19;27.20;;;7.28;;
56537;SDS011;42435;53.292;6.000;2023-02-03T10:01:56;34.92;;;7.45;;
56537;SDS011;42435;53.292;6.000;2023-02-03T10:17:56;41.13;;;8.75;;
56537;SDS011;42435;53.292;6.000;2023-02-03T10:20:33;39.15;;;8.52;;
56537;SDS011;42435;53.292;6.000;2023-02-03T10:23:06;33.72;;;7.25;;
56537;SDS011;42435;53.292;6.000;2023-02-03T10:25:41;35.42;;;7.50;;
56537;SDS011;42435;53.292;6.000;2023-02-03T10:28:15;35.63;;;7.60;;
56537;SDS011;42435;53.292;6.000;2023-02-03T10:30:56;33.38;;;7.13;;
56537;SDS011;42435;53.292;6.000;2023-02-03T10:33:28;35.03;;;7.07;;
56537;SDS011;42435;53.292;6.000;2023-02-03T10:41:01;39.47;;;7.03;;
56537;SDS011;42435;53.292;6.000;2023-02-03T10:43:30;33.85;;;8.35;;
56537;SDS011;42435;53.292;6.000;2023-02-03T10:46:15;37.10;;;7.18;;
56537;SDS011;42435;53.292;6.000;2023-02-03T10:48:50;34.88;;;7.13;;
56537;SDS011;42435;53.292;6.000;2023-02-03T10:51:18;36.72;;;7.32;;
56537;SDS011;42435;53.292;6.000;2023-02-03T10:53:47;43.03;;;8.88;;
56537;SDS011;42435;53.292;6.000;2023-02-03T10:56:16;42.92;;;7.75;;
56537;SDS011;42435;53.292;6.000;2023-02-03T10:58:46;35.60;;;8.55;;
56537;SDS011;42435;53.292;6.000;2023-02-03T11:04:00;38.97;;;7.88;;
56537;SDS011;42435;53.292;6.000;2023-02-03T11:06:30;35.42;;;8.18;;
56537;SDS011;42435;53.292;6.000;2023-02-03T11:08:57;42.15;;;8.93;;
56537;SDS011;42435;53.292;6.000;2023-02-03T11:11:24;38.75;;;7.88;;
56537;SDS011;42435;53.292;6.000;2023-02-03T11:14:09;33.90;;;7.53;;
56537;SDS011;42435;53.292;6.000;2023-02-03T11:16:39;37.75;;;8.55;;
56537;SDS011;42435;53.292;6.000;2023-02-03T11:19:06;36.83;;;8.52;;
56537;SDS011;42435;53.292;6.000;2023-02-03T11:21:52;36.70;;;7.45;;
56537;SDS011;42435;53.292;6.000;2023-02-03T11:24:25;32.80;;;8.27;;
56537;SDS011;42435;53.292;6.000;2023-02-03T11:26:57;36.08;;;7.20;;
56537;SDS011;42435;53.292;6.000;2023-02-03T11:29:29;34.30;;;7.28;;
56537;SDS011;42435;53.292;6.000;2023-02-03T11:31:59;37.88;;;8.65;;
56537;SDS011;42435;53.292;6.000;2023-02-03T11:34:34;44.95;;;9.02;;
56537;SDS011;42435;53.292;6.000;2023-02-03T11:39:54;41.95;;;7.07;;
56537;SDS011;42435;53.292;6.000;2023-02-03T11:47:47;37.95;;;8.00;;
56537;SDS011;42435;53.292;6.000;2023-02-03T11:52:47;40.28;;;8.90;;
56537;SDS011;42435;53.292;6.000;2023-02-03T11:57:53;47.88;;;8.98;;
56537;SDS011;42435;53.292;6.000;2023-02-03T12:14:16;43.05;;;10.02;;
56537;SDS011;42435;53.292;6.000;2023-02-03T12:17:16;43.97;;;9.18;;
56537;SDS011;42435;53.292;6.000;2023-02-03T12:25:48;42.13;;;9.93;;
56537;SDS011;42435;53.292;6.000;2023-02-03T12:30:57;35.70;;;9.18;;
56537;SDS011;42435;53.292;6.000;2023-02-03T12:33:39;43.03;;;8.30;;
56537;SDS011;42435;53.292;6.000;2023-02-03T12:36:27;42.20;;;7.85;;
56537;SDS011;42435;53.292;6.000;2023-02-03T12:38:59;53.63;;;9.88;;
56537;SDS011;42435;53.292;6.000;2023-02-03T12:41:34;38.53;;;8.73;;
56537;SDS011;42435;53.292;6.000;2023-02-03T12:44:13;44.55;;;9.60;;
56537;SDS011;42435;53.292;6.000;2023-02-03T12:47:03;42.83;;;10.00;;
56537;SDS011;42435;53.292;6.000;2023-02-03T12:49:43;43.88;;;8.65;;
56537;SDS011;42435;53.292;6.000;2023-02-03T12:52:20;38.45;;;8.15;;
56537;SDS011;42435;53.292;6.000;2023-02-03T12:57:24;48.90;;;9.40;;
56537;SDS011;42435;53.292;6.000;2023-02-03T12:59:57;42.08;;;9.45;;
56537;SDS011;42435;53.292;6.000;2023-02-03T13:02:29;35.08;;;9.38;;
56537;SDS011;42435;53.292;6.000;2023-02-03T13:05:08;45.08;;;8.10;;
56537;SDS011;42435;53.292;6.000;2023-02-03T13:07:46;42.25;;;9.68;;
56537;SDS011;42435;53.292;6.000;2023-02-03T13:10:18;44.75;;;8.40;;
56537;SDS011;42435;53.292;6.000;2023-02-03T13:12:52;37.45;;;6.68;;
56537;SDS011;42435;53.292;6.000;2023-02-03T13:15:25;41.90;;;9.90;;
56537;SDS011;42435;53.292;6.000;2023-02-03T13:18:05;37.00;;;7.07;;
56537;SDS011;42435;53.292;6.000;2023-02-03T13:20:35;39.03;;;7.82;;
56537;SDS011;42435;53.292;6.000;2023-02-03T13:23:04;33.38;;;7.78;;
56537;SDS011;42435;53.292;6.000;2023-02-03T13:25:56;34.97;;;7.20;;
56537;SDS011;42435;53.292;6.000;2023-02-03T13:31:51;38.15;;;7.30;;
56537;SDS011;42435;53.292;6.000;2023-02-03T13:34:44;30.30;;;7.88;;
56537;SDS011;42435;53.292;6.000;2023-02-03T13:37:26;42.45;;;8.70;;
56537;SDS011;42435;53.292;6.000;2023-02-03T13:40:16;37.75;;;8.73;;
56537;SDS011;42435;53.292;6.000;2023-02-03T13:42:54;35.92;;;7.55;;
56537;SDS011;42435;53.292;6.000;2023-02-03T13:48:20;40.25;;;8.88;;
56537;SDS011;42435;53.292;6.000;2023-02-03T13:50:47;39.47;;;11.18;;
56537;SDS011;42435;53.292;6.000;2023-02-03T13:53:20;36.45;;;8.63;;
56537;SDS011;42435;53.292;6.000;2023-02-03T13:55:55;33.53;;;7.85;;
56537;SDS011;42435;53.292;6.000;2023-02-03T14:04:02;29.17;;;7.10;;
56537;SDS011;42435;53.292;6.000;2023-02-03T14:19:00;33.55;;;6.65;;
56537;SDS011;42435;53.292;6.000;2023-02-03T14:21:26;28.95;;;6.40;;
56537;SDS011;42435;53.292;6.000;2023-02-03T14:24:04;29.42;;;6.13;;
56537;SDS011;42435;53.292;6.000;2023-02-03T14:26:38;33.45;;;5.90;;
56537;SDS011;42435;53.292;6.000;2023-02-03T14:29:09;28.00;;;6.00;;
56537;SDS011;42435;53.292;6.000;2023-02-03T14:31:58;31.40;;;6.15;;
56537;SDS011;42435;53.292;6.000;2023-02-03T14:42:33;26.60;;;6.05;;
56537;SDS011;42435;53.292;6.000;2023-02-03T14:53:46;23.77;;;5.43;;
56537;SDS011;42435;53.292;6.000;2023-02-03T14:58:48;17.63;;;4.63;;
56537;SDS011;42435;53.292;6.000;2023-02-03T15:06:41;20.23;;;4.43;;
56537;SDS011;42435;53.292;6.000;2023-02-03T15:09:29;30.27;;;5.20;;
56537;SDS011;42435;53.292;6.000;2023-02-03T15:11:58;17.98;;;4.38;;
56537;SDS011;42435;53.292;6.000;2023-02-03T15:14:25;27.48;;;5.38;;
56537;SDS011;42435;53.292;6.000;2023-02-03T15:17:00;17.58;;;4.15;;
56537;SDS011;42435;53.292;6.000;2023-02-03T15:19:28;27.52;;;6.75;;
56537;SDS011;42435;53.292;6.000;2023-02-03T15:21:58;29.67;;;5.93;;
56537;SDS011;42435;53.292;6.000;2023-02-03T15:24:24;29.52;;;6.03;;
56537;SDS011;42435;53.292;6.000;2023-02-03T15:26:53;36.55;;;6.20;;
56537;SDS011;42435;53.292;6.000;2023-02-03T15:29:33;32.63;;;7.03;;
56537;SDS011;42435;53.292;6.000;2023-02-03T15:34:53;44.15;;;8.05;;
56537;SDS011;42435;53.292;6.000;2023-02-03T15:37:22;36.58;;;7.93;;
56537;SDS011;42435;53.292;6.000;2023-02-03T15:40:19;43.90;;;10.00;;
56537;SDS011;42435;53.292;6.000;2023-02-03T15:45:37;39.90;;;8.70;;
56537;SDS011;42435;53.292;6.000;2023-02-03T15:48:14;40.20;;;8.65;;
56537;SDS011;42435;53.292;6.000;2023-02-03T15:50:48;44.97;;;9.35;;
56537;SDS011;42435;53.292;6.000;2023-02-03T15:56:24;50.78;;;10.43;;
56537;SDS011;42435;53.292;6.000;2023-02-03T15:59:20;44.15;;;9.30;;
56537;SDS011;42435;53.292;6.000;2023-02-03T16:01:49;45.17;;;9.00;;
56537;SDS011;42435;53.292;6.000;2023-02-03T16:04:16;34.33;;;8.32;;
56537;SDS011;42435;53.292;6.000;2023-02-03T16:06:44;38.08;;;8.40;;
56537;SDS011;42435;53.292;6.000;2023-02-03T16:09:46;40.63;;;7.90;;
56537;SDS011;42435;53.292;6.000;2023-02-03T16:14:36;40.30;;;9.48;;
56537;SDS011;42435;53.292;6.000;2023-02-03T16:17:02;45.83;;;10.50;;
56537;SDS011;42435;53.292;6.000;2023-02-03T16:19:28;47.78;;;9.15;;
56537;SDS011;42435;53.292;6.000;2023-02-03T16:21:58;39.35;;;10.15;;
56537;SDS011;42435;53.292;6.000;2023-02-03T16:29:49;41.25;;;7.97;;
56537;SDS011;42435;53.292;6.000;2023-02-03T16:32:33;40.55;;;9.85;;
56537;SDS011;42435;53.292;6.000;2023-02-03T16:35:18;32.50;;;9.33;;
56537;SDS011;42435;53.292;6.000;2023-02-03T16:38:06;32.25;;;7.72;;
56537;SDS011;42435;53.292;6.000;2023-02-03T16:40:54;31.27;;;7.25;;
56537;SDS011;42435;53.292;6.000;2023-02-03T16:43:39;41.55;;;9.13;;
56537;SDS011;42435;53.292;6.000;2023-02-03T16:46:23;32.60;;;8.27;;
56537;SDS011;42435;53.292;6.000;2023-02-03T16:49:07;30.60;;;8.88;;
56537;SDS011;42435;53.292;6.000;2023-02-03T16:51:51;43.95;;;9.02;;
56537;SDS011;42435;53.292;6.000;2023-02-03T16:54:17;34.70;;;8.38;;
56537;SDS011;42435;53.292;6.000;2023-02-03T16:56:43;33.30;;;7.43;;
56537;SDS011;42435;53.292;6.000;2023-02-03T16:59:08;29.20;;;6.53;;
56537;SDS011;42435;53.292;6.000;2023-02-03T17:01:34;28.10;;;6.57;;
56537;SDS011;42435;53.292;6.000;2023-02-03T17:04:00;26.83;;;6.03;;
56537;SDS011;42435;53.292;6.000;2023-02-03T17:06:26;26.50;;;6.13;;
56537;SDS011;42435;53.292;6.000;2023-02-03T17:08:52;24.73;;;6.32;;
56537;SDS011;42435;53.292;6.000;2023-02-03T17:11:19;24.42;;;5.30;;
56537;SDS011;42435;53.292;6.000;2023-02-03T17:13:46;27.15;;;5.25;;
56537;SDS011;42435;53.292;6.000;2023-02-03T17:16:16;25.80;;;6.00;;
56537;SDS011;42435;53.292;6.000;2023-02-03T17:18:43;23.48;;;7.03;;
56537;SDS011;42435;53.292;6.000;2023-02-03T17:21:11;22.50;;;5.78;;
56537;SDS011;42435;53.292;6.000;2023-02-03T17:23:38;27.38;;;6.18;;
56537;SDS011;42435;53.292;6.000;2023-02-03T17:26:04;23.67;;;6.38;;